Share

Bemidji, MN

RAWS BEMIDJI MN US (MBMJM5) Elev 1376 ft | 47.50 °N, 94.93 °W | Change Station

Current weather conditions updated 50 minutes ago

Clear
Clear
64 °F
Feels Like 64 °F
N
14
Wind Variable Wind from WSW
Gusts 27.0 mph
Sunrise 6:23 AM
Sunset 8:14 PM
Moon Waning Gibbous

Tomorrow is forecast to be Warmer than today.

Pressure 29.86 in
Visibility 10.0 miles
Clouds Clear
Dew Point 28 °F
Humidity 26%
Rainfall 0.02 in
Snow Depth Not available.
UV 4 out of 16
Pollen 9.30 out of 12
Air Quality Not available.
Flu Activity Sporadic
METAR KVWU 192129Z AUTO 23013KT 10SM CLR 14/02 A2986 RMK AO2

More Conditions Fewer Conditions

Pressure 29.86 in
Visibility 10.0 miles
Clouds Clear
Dew Point 28 °F
Humidity 26%
Rainfall 0.02 in
Snow Depth Not available.
UV 4 out of 16
Pollen 9.30 out of 12
Air Quality Not available.
Flu Activity Sporadic
METAR KVWU 192129Z AUTO 23013KT 10SM CLR 14/02 A2986 RMK AO2

More Conditions Fewer Conditions

10-Day Weather Forecast

Almanac

Astronomy

Apr. 19, 2014 Rise Set
Actual Time 6:23 AM CDT 8:14 PM CDT
Civil Twilight 5:50 AM CDT 8:47 PM CDT
Nautical Twilight 5:10 AM CDT 9:28 PM CDT
Astronomical Twilight 4:26 AM CDT 10:12 PM CDT
Moon 12:09 AM CDT 9:32 AM CDT
Length of Visible Light 14h 57m
Length of Day
13h 51m
Tomorrow will be 3m 15s longer.
Waning Gibbous, 76% of the Moon is Illuminated
Today
Waning Gibbous
Apr 22
Last Quarter
Apr 29
New
May 6
First Quarter
May 14
Full

Today's Extremes

State Highs State Lows

Community

  • Skirting the Horizon
    Skirting the Horizon
  • Piriapolis
    Piriapolis
  • A Glorious Morning
    A Glorious Morning
  • Tender Rays Of Hope
    Tender Rays Of Hope
  • Bleeding Hearts
    Bleeding Hearts

WunderPhotos

Upload Photos

1,702,915 photos uploaded!

WunderBlogs® & News

Nearby

Snow Depth

Station Depth Elevation
No new snow has been reported.

Coastal Water Temperatures

Place Temperature
No Stations Reporting

Earthquake Activity

City Distance Mag. Time & Date
No recent earthquake activity has been reported nearby.
Minimum magnitude displayed is 2.5.

Nearby Weather Stations

Station Location Temp. Dew Point Humidity Wind Precip. Elev Updated Type
RAWS BEMIDJI MN, Bemidji, MN 64 °F 28 °F 26% WSW  at  14 mph 0.00 in / hr 1376 ft 4:06 PM CDT MADIS
Bemidji State University - Dept of Geogr, Bemidji, MN 63.8 °F 34 °F 33% WNW  at  2.0 mph 0.00 in / hr 1352 ft 4:56 PM CDT Rapid Fire
Grange Rd, Bemidji, MN 66.0 °F 35 °F 32% WSW  at  5.1 mph 0.00 in / hr 1417 ft 4:56 PM CDT Rapid Fire
Turtle River TWP, Bemidji, MN 66.4 °F 28 °F 24% SW  at  14.5 mph 0.00 in / hr 1379 ft 4:56 PM CDT Rapid Fire
Long Lake, Bemidji, MN 65.1 °F 35 °F 33% WSW  at  10.4 mph 0.00 in / hr 1367 ft 4:56 PM CDT Rapid Fire
RAWS CASS LAKE MN, Cass Lake, MN 66 °F 26 °F 22% West  at  16 mph 0.00 in / hr 1299 ft 4:01 PM CDT MADIS

Show More Stations Show Fewer Stations

What do you think?

We're not finished. Please let us know what you like, what you don't like, and what you are still missing.